createdAt,value
2017-12-22T00:00:32.186Z,14.87
2017-12-22T00:03:01.610Z,14.05
2017-12-22T00:05:30.729Z,15.70
2017-12-22T00:07:58.791Z,16.55
2017-12-22T00:10:27.223Z,14.52
2017-12-22T00:12:57.260Z,13.60
2017-12-22T00:15:25.123Z,13.82
2017-12-22T00:17:55.277Z,14.52
2017-12-22T00:20:23.695Z,14.65
2017-12-22T00:22:53.991Z,16.17
2017-12-22T00:25:21.447Z,12.68
2017-12-22T00:27:50.133Z,13.40
2017-12-22T00:30:17.701Z,14.25
2017-12-22T00:32:45.174Z,14.57
2017-12-22T00:35:12.656Z,17.12
2017-12-22T00:37:40.117Z,12.45
2017-12-22T00:40:12.159Z,17.27
2017-12-22T00:42:39.623Z,13.05
2017-12-22T00:45:07.958Z,18.02
2017-12-22T00:47:35.432Z,16.45
2017-12-22T00:50:03.447Z,14.02
2017-12-22T00:52:32.618Z,15.55
2017-12-22T00:55:00.065Z,20.33
2017-12-22T00:57:28.463Z,14.63
2017-12-22T00:59:55.927Z,15.65
2017-12-22T01:02:23.809Z,15.85
2017-12-22T01:04:52.376Z,15.85
2017-12-22T01:07:19.813Z,20.48
2017-12-22T01:09:50.198Z,16.17
2017-12-22T01:12:20.333Z,18.52
2017-12-22T01:14:47.795Z,19.42
2017-12-22T01:17:24.710Z,23.25
2017-12-22T01:20:09.250Z,14.32
2017-12-22T01:22:36.782Z,16.83
2017-12-22T01:25:06.173Z,17.95
2017-12-22T01:27:33.607Z,19.37
2017-12-22T01:30:01.050Z,18.55
2017-12-22T01:32:28.893Z,17.65
2017-12-22T01:34:56.358Z,17.30
2017-12-22T01:37:23.806Z,19.20
2017-12-22T01:39:51.249Z,18.77
2017-12-22T01:42:20.638Z,18.48
2017-12-22T01:44:48.093Z,20.17
2017-12-22T01:47:15.535Z,17.90
2017-12-22T01:49:42.978Z,19.62
2017-12-22T01:52:10.418Z,18.08
2017-12-22T01:54:39.029Z,15.85
2017-12-22T01:57:07.726Z,18.02
2017-12-22T01:59:35.167Z,19.60
2017-12-22T02:02:04.585Z,15.55
2017-12-22T02:04:32.941Z,20.00
2017-12-22T02:07:00.393Z,23.00
2017-12-22T02:09:28.225Z,19.15
2017-12-22T02:11:55.681Z,18.02
2017-12-22T02:14:23.134Z,17.62
2017-12-22T02:16:50.584Z,25.10
2017-12-22T02:19:18.021Z,17.60
2017-12-22T02:21:45.478Z,15.80
2017-12-22T02:24:12.921Z,22.67
2017-12-22T02:26:40.367Z,20.50
2017-12-22T02:29:07.805Z,17.35
2017-12-22T02:31:35.638Z,21.37
2017-12-22T02:34:03.096Z,17.55
2017-12-22T02:36:30.548Z,18.10
2017-12-22T02:38:58.006Z,18.00
2017-12-22T02:41:25.440Z,15.15
2017-12-22T02:43:52.889Z,22.17
2017-12-22T02:46:20.327Z,18.83
2017-12-22T02:48:47.762Z,22.75
2017-12-22T02:51:15.607Z,20.70
2017-12-22T02:53:43.042Z,17.58
2017-12-22T02:56:10.490Z,25.48
2017-12-22T02:58:37.941Z,19.30
2017-12-22T03:01:05.386Z,22.15
2017-12-22T03:03:33.730Z,21.48
2017-12-22T03:06:01.569Z,20.30
2017-12-22T03:08:29.026Z,17.67
2017-12-22T03:10:56.461Z,22.48
2017-12-22T03:13:23.900Z,16.25
2017-12-22T03:15:51.343Z,17.45
2017-12-22T03:18:18.784Z,20.62
2017-12-22T03:20:46.217Z,17.87
2017-12-22T03:23:13.654Z,16.50
2017-12-22T03:25:41.098Z,19.37
2017-12-22T03:28:08.532Z,18.33
2017-12-22T03:30:35.963Z,19.75
2017-12-22T03:33:03.811Z,18.35
2017-12-22T03:35:32.137Z,15.70
2017-12-22T03:37:59.574Z,15.55
2017-12-22T03:40:27.430Z,15.35
2017-12-22T03:42:54.859Z,17.10
2017-12-22T03:45:22.302Z,18.17
2017-12-22T03:47:49.743Z,15.65
2017-12-22T03:50:17.189Z,16.35
2017-12-22T03:52:44.618Z,18.20
2017-12-22T03:55:12.474Z,16.80
2017-12-22T03:57:39.904Z,13.70
2017-12-22T04:00:07.338Z,11.32
2017-12-22T04:02:34.791Z,13.80
2017-12-22T04:05:02.234Z,11.75
2017-12-22T04:07:30.666Z,11.65
2017-12-22T04:09:58.116Z,12.55
2017-12-22T04:12:25.559Z,10.32
2017-12-22T04:14:52.997Z,9.95
2017-12-22T04:17:20.469Z,12.77
2017-12-22T04:19:47.907Z,10.27
2017-12-22T04:22:15.345Z,10.98
2017-12-22T04:24:43.186Z,10.50
2017-12-22T04:27:10.626Z,9.45
2017-12-22T04:29:38.076Z,10.88
2017-12-22T04:32:05.519Z,11.07
2017-12-22T04:34:32.998Z,12.15
2017-12-22T04:37:00.438Z,10.77
2017-12-22T04:39:27.879Z,9.10
2017-12-22T04:41:55.318Z,9.13
2017-12-22T04:44:22.750Z,9.57
2017-12-22T04:46:50.595Z,8.88
2017-12-22T04:49:18.030Z,10.48
2017-12-22T04:51:47.451Z,8.88
2017-12-22T04:54:15.770Z,11.35
2017-12-22T04:56:43.602Z,8.70
2017-12-22T04:59:11.039Z,7.80
2017-12-22T05:01:38.472Z,10.55
2017-12-22T05:04:05.914Z,6.47
2017-12-22T05:06:33.364Z,10.35
2017-12-22T05:09:01.186Z,10.40
2017-12-22T05:11:28.636Z,8.32
2017-12-22T05:13:57.121Z,8.23
2017-12-22T05:16:24.563Z,5.62
2017-12-22T05:18:52.001Z,9.23
2017-12-22T05:21:19.447Z,7.37
2017-12-22T05:23:46.903Z,6.62
2017-12-22T05:26:15.283Z,8.20
2017-12-22T05:28:42.730Z,13.30
2017-12-22T05:31:10.198Z,7.95
2017-12-22T05:33:37.643Z,6.43
2017-12-22T05:36:06.026Z,5.72
2017-12-22T05:38:33.473Z,7.68
2017-12-22T05:41:01.312Z,6.05
2017-12-22T05:43:28.761Z,8.73
2017-12-22T05:45:56.191Z,6.00
2017-12-22T05:48:23.638Z,7.57
2017-12-22T05:50:51.062Z,7.97
2017-12-22T05:53:20.846Z,8.23
2017-12-22T05:55:48.295Z,7.25
2017-12-22T05:58:15.735Z,5.80
2017-12-22T06:00:43.161Z,7.57
2017-12-22T06:03:10.592Z,9.05
2017-12-22T06:05:38.030Z,8.60
2017-12-22T06:08:05.457Z,7.22
2017-12-22T06:10:32.891Z,5.65
2017-12-22T06:13:00.341Z,5.32
2017-12-22T06:15:27.775Z,5.82
2017-12-22T06:17:55.598Z,3.85
2017-12-22T06:20:23.066Z,4.32
2017-12-22T06:22:50.509Z,5.80
2017-12-22T06:25:19.886Z,3.60
2017-12-22T06:27:47.313Z,4.03
2017-12-22T06:30:17.078Z,3.60
2017-12-22T06:32:46.466Z,5.60
2017-12-22T06:35:13.887Z,3.80
2017-12-22T06:37:41.725Z,3.40
2017-12-22T06:40:09.150Z,5.87
2017-12-22T06:42:37.462Z,3.35
2017-12-22T06:45:04.895Z,3.70
2017-12-22T06:47:32.335Z,3.20
2017-12-22T06:50:00.678Z,5.28
2017-12-22T06:52:28.517Z,6.20
2017-12-22T06:54:56.897Z,5.43
2017-12-22T06:57:24.342Z,3.83
2017-12-22T06:59:52.698Z,5.05
2017-12-22T07:02:20.144Z,4.40
2017-12-22T07:04:47.600Z,4.78
2017-12-22T07:07:16.002Z,3.78
2017-12-22T07:09:43.442Z,4.03
2017-12-22T07:12:10.874Z,5.10
2017-12-22T07:14:41.404Z,3.55
2017-12-22T07:17:09.716Z,5.28
2017-12-22T07:19:39.231Z,5.55
2017-12-22T07:22:07.301Z,5.80
2017-12-22T07:24:34.750Z,4.82
2017-12-22T07:27:03.142Z,5.07
2017-12-22T07:29:30.596Z,4.32
2017-12-22T07:31:58.039Z,5.28
2017-12-22T07:34:25.472Z,4.20
2017-12-22T07:36:52.916Z,3.53
2017-12-22T07:39:20.759Z,4.65
2017-12-22T07:41:48.200Z,5.00
2017-12-22T07:44:15.631Z,4.32
2017-12-22T07:46:43.078Z,5.15
2017-12-22T07:49:10.510Z,4.20
2017-12-22T07:51:38.344Z,3.70
2017-12-22T07:54:05.784Z,5.55
2017-12-22T07:56:33.277Z,10.10
2017-12-22T07:59:00.682Z,4.85
2017-12-22T08:01:28.115Z,4.65
2017-12-22T08:03:55.575Z,6.40
2017-12-22T08:06:25.072Z,6.85
2017-12-22T08:08:53.768Z,4.53
2017-12-22T08:11:23.923Z,8.68
2017-12-22T08:13:51.443Z,7.10
2017-12-22T08:16:18.884Z,7.85
2017-12-22T08:18:46.711Z,5.70
2017-12-22T08:21:14.150Z,7.15
2017-12-22T08:23:41.573Z,8.02
2017-12-22T08:26:09.020Z,7.30
2017-12-22T08:28:36.844Z,7.70
2017-12-22T08:31:04.285Z,7.90
2017-12-22T08:33:31.709Z,7.90
2017-12-22T08:35:59.160Z,13.05
2017-12-22T08:38:26.580Z,7.90
2017-12-22T08:40:57.268Z,9.27
2017-12-22T08:43:24.690Z,8.65
2017-12-22T08:45:52.512Z,8.30
2017-12-22T08:48:19.968Z,7.30
2017-12-22T08:50:47.442Z,9.25
2017-12-22T08:53:14.863Z,9.05
2017-12-22T08:55:42.302Z,6.28
2017-12-22T08:58:09.773Z,7.95
2017-12-22T09:00:37.197Z,8.13
2017-12-22T09:03:05.031Z,10.85
2017-12-22T09:05:32.456Z,7.93
2017-12-22T09:07:59.912Z,14.48
2017-12-22T09:10:27.347Z,12.73
2017-12-22T09:12:54.772Z,10.20
2017-12-22T09:15:22.218Z,16.02
2017-12-22T09:17:50.681Z,12.80
2017-12-22T09:20:18.149Z,11.75
2017-12-22T09:22:45.628Z,12.45
2017-12-22T09:25:14.992Z,15.00
2017-12-22T09:27:42.420Z,10.93
2017-12-22T09:30:09.918Z,12.05
2017-12-22T09:32:37.731Z,15.95
2017-12-22T09:35:05.553Z,13.07
2017-12-22T09:37:32.990Z,9.93
2017-12-22T09:40:00.416Z,11.02
2017-12-22T09:42:27.864Z,11.98
2017-12-22T09:44:55.711Z,15.05
2017-12-22T09:47:23.153Z,15.25
2017-12-22T09:49:50.576Z,12.35
2017-12-22T09:52:18.009Z,9.65
2017-12-22T09:54:45.460Z,12.75
2017-12-22T09:57:12.898Z,13.77
2017-12-22T09:59:41.592Z,13.60
2017-12-22T10:02:09.437Z,14.15
2017-12-22T10:04:36.956Z,13.30
2017-12-22T10:07:04.360Z,14.77
2017-12-22T10:09:31.800Z,16.58
2017-12-22T10:11:59.228Z,13.95
2017-12-22T10:14:26.660Z,11.93
2017-12-22T10:16:54.096Z,12.18
2017-12-22T10:19:22.784Z,15.50
2017-12-22T10:21:50.605Z,13.50
2017-12-22T10:24:19.976Z,12.02
2017-12-22T10:26:47.447Z,10.93
2017-12-22T10:29:14.869Z,11.25
2017-12-22T10:31:42.712Z,9.75
2017-12-22T10:34:10.140Z,13.48
2017-12-22T10:36:37.645Z,12.63
2017-12-22T10:39:05.006Z,11.70
2017-12-22T10:41:32.821Z,12.70
2017-12-22T10:44:00.258Z,14.05
2017-12-22T10:46:27.693Z,11.70
2017-12-22T10:48:55.141Z,13.20
2017-12-22T10:51:22.994Z,14.95
2017-12-22T10:53:50.447Z,12.80
2017-12-22T10:56:17.944Z,12.05
2017-12-22T10:58:45.378Z,9.65
2017-12-22T11:01:13.218Z,9.07
2017-12-22T11:03:40.677Z,12.52
2017-12-22T11:06:08.118Z,12.40
2017-12-22T11:08:35.548Z,9.13
2017-12-22T11:11:03.393Z,11.18
2017-12-22T11:13:30.831Z,11.60
2017-12-22T11:15:58.661Z,8.65
2017-12-22T11:18:26.107Z,17.50
2017-12-22T11:20:53.538Z,11.65
2017-12-22T11:23:21.886Z,9.13
2017-12-22T11:25:51.682Z,10.23
2017-12-22T11:28:19.145Z,12.73
2017-12-22T11:30:46.583Z,8.93
2017-12-22T11:33:16.008Z,12.45
2017-12-22T11:35:43.459Z,9.73
2017-12-22T11:38:10.905Z,7.87
2017-12-22T11:40:38.339Z,8.18
2017-12-22T11:43:05.779Z,8.32
2017-12-22T11:45:33.223Z,7.90
2017-12-22T11:48:00.673Z,9.73
2017-12-22T11:50:28.480Z,8.05
2017-12-22T11:52:55.919Z,11.23
2017-12-22T11:55:23.358Z,11.77
2017-12-22T11:57:50.777Z,9.40
2017-12-22T12:00:18.209Z,7.85
2017-12-22T12:02:45.629Z,8.25
2017-12-22T12:05:13.059Z,6.30
2017-12-22T12:07:40.882Z,7.60
2017-12-22T12:10:08.310Z,9.05
2017-12-22T12:12:35.739Z,8.88
2017-12-22T12:15:03.568Z,7.87
2017-12-22T12:17:30.994Z,6.70
2017-12-22T12:19:58.424Z,5.43
2017-12-22T12:22:26.263Z,9.73
2017-12-22T12:24:54.663Z,9.52
2017-12-22T12:27:22.477Z,7.07
2017-12-22T12:29:49.892Z,8.00
2017-12-22T12:32:17.327Z,8.68
2017-12-22T12:34:44.745Z,8.23
2017-12-22T12:37:12.180Z,9.57
2017-12-22T12:39:39.589Z,9.05
2017-12-22T12:42:08.090Z,8.20
2017-12-22T12:44:35.533Z,9.07
2017-12-22T12:47:02.984Z,6.97
2017-12-22T12:49:30.441Z,10.65
2017-12-22T12:51:57.882Z,10.93
2017-12-22T12:54:25.338Z,8.30
2017-12-22T12:56:52.771Z,8.50
2017-12-22T12:59:20.210Z,7.82
2017-12-22T13:01:48.592Z,9.60
2017-12-22T13:04:16.747Z,9.68
2017-12-22T13:06:45.454Z,10.40
2017-12-22T13:09:12.972Z,7.60
2017-12-22T13:11:40.356Z,8.50
2017-12-22T13:14:08.194Z,11.05
2017-12-22T13:16:35.644Z,8.40
2017-12-22T13:19:03.100Z,12.13
2017-12-22T13:21:30.593Z,8.70
2017-12-22T13:23:57.991Z,8.30
2017-12-22T13:26:25.432Z,9.15
2017-12-22T13:28:52.888Z,9.00
2017-12-22T13:31:20.318Z,11.40
2017-12-22T13:33:47.778Z,11.32
2017-12-22T13:36:15.215Z,12.37
2017-12-22T13:38:43.064Z,11.68
2017-12-22T13:41:11.675Z,17.23
2017-12-22T13:43:39.527Z,16.92
2017-12-22T13:46:06.967Z,15.20
2017-12-22T13:48:34.414Z,15.00
2017-12-22T13:51:01.850Z,17.40
2017-12-22T13:53:30.385Z,12.75
2017-12-22T13:55:59.096Z,13.20
2017-12-22T13:58:26.537Z,11.38
2017-12-22T14:00:55.255Z,11.70
2017-12-22T14:03:22.687Z,11.50
2017-12-22T14:05:50.532Z,11.70
2017-12-22T14:08:18.335Z,12.82
2017-12-22T14:10:45.787Z,10.90
2017-12-22T14:13:13.219Z,9.73
2017-12-22T14:15:41.110Z,10.27
2017-12-22T14:18:08.594Z,12.25
2017-12-22T14:20:36.976Z,11.98
2017-12-22T14:23:05.381Z,8.93
2017-12-22T14:25:32.834Z,10.32
2017-12-22T14:28:00.282Z,14.48
2017-12-22T14:30:27.714Z,11.25
2017-12-22T14:32:55.474Z,10.35
2017-12-22T14:35:23.814Z,11.30
2017-12-22T14:37:51.663Z,10.50
2017-12-22T14:40:19.105Z,10.30
2017-12-22T14:42:47.389Z,9.70
2017-12-22T14:45:14.824Z,7.47
2017-12-22T14:47:42.260Z,10.20
2017-12-22T14:50:11.644Z,11.52
2017-12-22T14:52:39.072Z,12.30
2017-12-22T14:55:06.504Z,11.18
2017-12-22T14:57:33.943Z,11.43
2017-12-22T15:00:02.307Z,12.65
2017-12-22T15:02:29.760Z,10.70
2017-12-22T15:04:58.093Z,10.98
2017-12-22T15:07:25.530Z,13.52
2017-12-22T15:09:52.987Z,13.10
2017-12-22T15:12:20.438Z,12.60
2017-12-22T15:14:47.891Z,14.75
2017-12-22T15:17:15.362Z,12.05
2017-12-22T15:19:42.813Z,13.60
2017-12-22T15:22:10.259Z,15.98
2017-12-22T15:24:38.580Z,14.23
2017-12-22T15:27:10.105Z,14.60
2017-12-22T15:29:37.900Z,11.70
2017-12-22T15:32:05.392Z,13.25
2017-12-22T15:34:33.800Z,14.20
2017-12-22T15:37:01.311Z,12.48
2017-12-22T15:39:30.692Z,13.38
2017-12-22T15:41:58.253Z,13.32
2017-12-22T15:44:26.894Z,15.60
2017-12-22T15:46:56.030Z,11.15
2017-12-22T15:49:24.371Z,9.82
2017-12-22T15:51:51.874Z,13.07
2017-12-22T15:54:19.783Z,13.68
2017-12-22T15:56:47.333Z,11.20
2017-12-22T15:59:15.621Z,11.12
2017-12-22T16:01:43.078Z,13.38
2017-12-22T16:04:11.469Z,11.15
2017-12-22T16:06:38.956Z,11.43
2017-12-22T16:09:08.362Z,14.05
2017-12-22T16:11:35.878Z,10.73
2017-12-22T16:14:03.332Z,10.70
2017-12-22T16:16:30.770Z,12.88
2017-12-22T16:18:59.084Z,14.40
2017-12-22T16:21:26.534Z,11.05
2017-12-22T16:23:53.985Z,12.32
2017-12-22T16:26:21.438Z,12.98
2017-12-22T16:31:23.174Z,14.65
2017-12-22T16:33:50.605Z,13.10
2017-12-22T16:36:18.047Z,12.35
2017-12-22T16:38:45.500Z,12.02
2017-12-22T16:41:12.950Z,12.18
2017-12-22T16:43:40.394Z,12.60
2017-12-22T16:46:07.846Z,13.02
2017-12-22T16:48:35.288Z,11.85
2017-12-22T16:51:02.744Z,14.48
2017-12-22T16:53:30.184Z,11.77
2017-12-22T16:55:58.034Z,13.98
2017-12-22T16:58:25.487Z,12.27
2017-12-22T17:00:52.919Z,13.85
2017-12-22T17:03:20.366Z,11.05
2017-12-22T17:05:47.802Z,13.05
2017-12-22T17:08:15.250Z,14.60
2017-12-22T17:10:42.707Z,15.73
2017-12-22T17:13:10.147Z,16.50
2017-12-22T17:15:38.054Z,14.05
2017-12-22T17:18:05.535Z,9.57
2017-12-22T17:20:32.956Z,13.45
2017-12-22T17:23:00.401Z,10.15
2017-12-22T17:25:27.846Z,13.57
2017-12-22T17:27:55.691Z,9.70
2017-12-22T17:30:23.139Z,6.57
2017-12-22T17:32:51.503Z,13.07
2017-12-22T17:35:18.947Z,9.73
2017-12-22T17:37:46.507Z,10.48
2017-12-22T17:40:15.881Z,9.88
2017-12-22T17:42:43.333Z,14.52
2017-12-22T17:45:11.175Z,12.80
2017-12-22T17:47:38.615Z,9.55
2017-12-22T17:50:06.947Z,8.75
2017-12-22T17:52:35.342Z,10.73
2017-12-22T17:55:02.807Z,11.02
2017-12-22T17:57:30.258Z,10.43
2017-12-22T17:59:57.691Z,9.70
2017-12-22T18:02:25.166Z,11.30
2017-12-22T18:04:52.596Z,9.50
2017-12-22T18:07:20.063Z,8.90
2017-12-22T18:09:47.518Z,7.65
2017-12-22T18:12:14.970Z,10.15
2017-12-22T18:14:43.334Z,10.85
2017-12-22T18:17:11.190Z,10.18
2017-12-22T18:19:39.494Z,8.93
2017-12-22T18:22:07.814Z,8.82
2017-12-22T18:24:35.250Z,9.40
2017-12-22T18:27:03.587Z,8.27
2017-12-22T18:29:31.410Z,9.20
2017-12-22T18:31:58.853Z,9.90
2017-12-22T18:34:26.303Z,19.17
2017-12-22T18:36:53.735Z,11.63
2017-12-22T18:39:21.583Z,9.43
2017-12-22T18:41:49.026Z,10.15
2017-12-22T18:44:17.370Z,10.77
2017-12-22T18:46:44.826Z,11.23
2017-12-22T18:49:12.274Z,11.55
2017-12-22T18:51:39.721Z,9.82
2017-12-22T18:54:07.194Z,10.98
2017-12-22T18:56:34.986Z,12.10
2017-12-22T18:59:02.423Z,8.25
2017-12-22T19:01:30.925Z,11.30
2017-12-22T19:03:58.392Z,10.60
2017-12-22T19:06:25.843Z,11.38
2017-12-22T19:08:56.748Z,10.90
2017-12-22T19:11:24.487Z,10.52
2017-12-22T19:13:53.968Z,12.80
2017-12-22T19:16:21.427Z,14.75
2017-12-22T19:18:48.868Z,12.25
2017-12-22T19:21:16.323Z,11.35
2017-12-22T19:23:43.787Z,10.07
2017-12-22T19:26:11.333Z,10.13
2017-12-22T19:28:38.834Z,16.48
2017-12-22T19:31:06.304Z,10.18
2017-12-22T19:33:33.805Z,12.55
2017-12-22T19:36:01.365Z,16.50
2017-12-22T19:38:30.366Z,15.00
2017-12-22T19:40:57.824Z,11.77
2017-12-22T19:43:26.179Z,16.87
2017-12-22T19:45:53.647Z,17.05
2017-12-22T19:48:21.114Z,11.25
2017-12-22T19:50:48.609Z,14.80
2017-12-22T19:53:16.459Z,14.20
2017-12-22T19:55:44.586Z,18.60
2017-12-22T19:58:12.049Z,13.60
2017-12-22T20:00:40.724Z,14.85
2017-12-22T20:03:19.915Z,13.80
2017-12-22T20:05:47.841Z,9.48
2017-12-22T20:08:15.329Z,15.35
2017-12-22T20:10:42.777Z,10.43
2017-12-22T20:13:11.160Z,12.35
2017-12-22T20:15:38.731Z,13.00
2017-12-22T20:18:08.021Z,10.77
2017-12-22T20:20:35.482Z,16.02
2017-12-22T20:23:03.366Z,11.35
2017-12-22T20:25:31.214Z,15.23
2017-12-22T20:27:59.084Z,13.88
2017-12-22T20:30:29.092Z,12.02
2017-12-22T20:32:56.562Z,13.13
2017-12-22T20:35:25.573Z,13.88
2017-12-22T20:37:53.057Z,12.63
2017-12-22T20:40:20.526Z,10.73
2017-12-22T20:42:47.987Z,11.15
2017-12-22T20:45:16.496Z,13.88
2017-12-22T20:47:43.975Z,12.45
2017-12-22T20:50:11.832Z,13.40
2017-12-22T20:52:39.302Z,10.95
2017-12-22T20:55:08.084Z,13.25
2017-12-22T20:57:35.955Z,14.15
2017-12-22T21:00:03.809Z,12.05
2017-12-22T21:02:31.272Z,15.40
2017-12-22T21:04:59.662Z,20.83
2017-12-22T21:07:27.534Z,12.52
2017-12-22T21:09:54.996Z,12.93
2017-12-22T21:12:22.444Z,12.65
2017-12-22T21:14:50.293Z,12.13
2017-12-22T21:17:17.742Z,10.13
2017-12-22T21:19:47.586Z,10.65
2017-12-22T21:22:15.042Z,14.52
2017-12-22T21:24:43.522Z,9.02
2017-12-22T21:27:11.386Z,9.85
2017-12-22T21:29:41.625Z,10.48
2017-12-22T21:32:11.041Z,13.60
2017-12-22T21:34:38.706Z,14.90
2017-12-22T21:37:06.159Z,31.60
2017-12-22T21:39:33.617Z,22.83
2017-12-22T21:42:01.115Z,21.15
2017-12-22T21:44:29.498Z,17.12
2017-12-22T21:46:58.027Z,15.68
2017-12-22T21:49:25.480Z,17.08
2017-12-22T21:51:53.051Z,20.00
2017-12-22T21:54:20.512Z,20.88
2017-12-22T21:56:48.000Z,20.62
2017-12-22T21:59:15.467Z,14.93
2017-12-22T22:01:44.474Z,13.57
2017-12-22T22:04:12.374Z,13.48
2017-12-22T22:06:39.821Z,11.93
2017-12-22T22:09:07.914Z,11.82
2017-12-22T22:11:35.345Z,11.65
2017-12-22T22:14:02.832Z,11.80
2017-12-22T22:16:30.337Z,10.50
2017-12-22T22:18:57.805Z,16.98
2017-12-22T22:21:25.641Z,11.40
2017-12-22T22:23:54.471Z,14.05
2017-12-22T22:26:24.295Z,12.30
2017-12-22T22:28:51.740Z,11.02
2017-12-22T22:31:21.322Z,17.30
2017-12-22T22:33:50.527Z,17.20
2017-12-22T22:36:17.980Z,22.10
2017-12-22T22:38:45.845Z,13.07
2017-12-22T22:41:13.360Z,12.32
2017-12-22T22:43:41.631Z,13.70
2017-12-22T22:46:09.084Z,13.13
2017-12-22T23:02:40.831Z,9.40
2017-12-22T23:05:09.080Z,15.98
2017-12-22T23:07:40.892Z,18.42
2017-12-22T23:10:09.764Z,14.50
2017-12-22T23:12:40.056Z,10.52
2017-12-22T23:15:10.669Z,12.70
2017-12-22T23:17:38.114Z,14.25
2017-12-22T23:20:07.222Z,13.02
2017-12-22T23:22:35.999Z,15.05
2017-12-22T23:25:05.987Z,12.32
2017-12-22T23:27:33.464Z,18.98
2017-12-22T23:30:01.956Z,14.80
2017-12-22T23:32:31.007Z,12.85
2017-12-22T23:35:00.216Z,12.48
2017-12-22T23:37:28.831Z,12.93
2017-12-22T23:39:56.302Z,13.82
2017-12-22T23:42:24.140Z,12.00
2017-12-22T23:44:51.587Z,10.18
2017-12-22T23:47:19.123Z,12.10
2017-12-22T23:49:46.543Z,11.12
2017-12-22T23:52:15.132Z,11.98
2017-12-22T23:54:45.575Z,14.27
2017-12-22T23:57:14.363Z,12.32
2017-12-22T23:59:44.198Z,14.85
